sensor_id;sensor_type;location;lat;lon;timestamp;P1;durP1;ratioP1;P2;durP2;ratioP2
147;SDS011;142;50.652;12.216;2022-10-29T00:00:51;0.07;;;0.03;;
147;SDS011;142;50.652;12.216;2022-10-29T00:03:19;0.30;;;0.20;;
147;SDS011;142;50.652;12.216;2022-10-29T00:05:56;0.30;;;0.20;;
147;SDS011;142;50.652;12.216;2022-10-29T00:08:24;0.20;;;0.10;;
147;SDS011;142;50.652;12.216;2022-10-29T00:10:52;0.30;;;0.20;;
147;SDS011;142;50.652;12.216;2022-10-29T00:13:19;0.20;;;0.10;;
147;SDS011;142;50.652;12.216;2022-10-29T00:15:46;0.30;;;0.20;;
147;SDS011;142;50.652;12.216;2022-10-29T00:18:15;0.20;;;0.10;;
147;SDS011;142;50.652;12.216;2022-10-29T00:20:42;0.00;;;0.00;;
147;SDS011;142;50.652;12.216;2022-10-29T00:23:09;0.20;;;0.10;;
147;SDS011;142;50.652;12.216;2022-10-29T00:25:36;0.20;;;0.10;;
147;SDS011;142;50.652;12.216;2022-10-29T00:28:04;0.23;;;0.13;;
147;SDS011;142;50.652;12.216;2022-10-29T00:30:30;0.20;;;0.10;;
147;SDS011;142;50.652;12.216;2022-10-29T00:32:58;0.30;;;0.20;;
147;SDS011;142;50.652;12.216;2022-10-29T00:35:26;0.30;;;0.20;;
147;SDS011;142;50.652;12.216;2022-10-29T00:37:54;0.20;;;0.10;;
147;SDS011;142;50.652;12.216;2022-10-29T00:40:21;0.20;;;0.10;;
147;SDS011;142;50.652;12.216;2022-10-29T00:42:48;0.20;;;0.10;;
147;SDS011;142;50.652;12.216;2022-10-29T00:45:18;0.13;;;0.07;;
147;SDS011;142;50.652;12.216;2022-10-29T00:47:48;0.30;;;0.20;;
147;SDS011;142;50.652;12.216;2022-10-29T00:50:17;0.20;;;0.10;;
147;SDS011;142;50.652;12.216;2022-10-29T00:52:49;0.23;;;0.13;;
147;SDS011;142;50.652;12.216;2022-10-29T00:55:18;0.20;;;0.10;;
147;SDS011;142;50.652;12.216;2022-10-29T00:57:46;0.20;;;0.10;;
147;SDS011;142;50.652;12.216;2022-10-29T01:00:16;0.30;;;0.20;;
147;SDS011;142;50.652;12.216;2022-10-29T01:02:45;0.20;;;0.10;;
147;SDS011;142;50.652;12.216;2022-10-29T01:05:12;0.30;;;0.20;;
147;SDS011;142;50.652;12.216;2022-10-29T01:07:43;0.20;;;0.10;;
147;SDS011;142;50.652;12.216;2022-10-29T01:10:12;0.20;;;0.10;;
147;SDS011;142;50.652;12.216;2022-10-29T01:12:45;0.40;;;0.30;;
147;SDS011;142;50.652;12.216;2022-10-29T01:15:25;0.20;;;0.10;;
147;SDS011;142;50.652;12.216;2022-10-29T01:18:03;0.20;;;0.10;;
147;SDS011;142;50.652;12.216;2022-10-29T01:21:02;0.30;;;0.20;;
147;SDS011;142;50.652;12.216;2022-10-29T01:23:58;0.00;;;0.00;;
147;SDS011;142;50.652;12.216;2022-10-29T01:26:59;0.20;;;0.10;;
147;SDS011;142;50.652;12.216;2022-10-29T01:29:47;0.20;;;0.10;;
147;SDS011;142;50.652;12.216;2022-10-29T01:32:28;0.20;;;0.10;;
147;SDS011;142;50.652;12.216;2022-10-29T01:35:02;0.20;;;0.10;;
147;SDS011;142;50.652;12.216;2022-10-29T01:37:38;0.30;;;0.20;;
147;SDS011;142;50.652;12.216;2022-10-29T01:40:14;0.20;;;0.10;;
147;SDS011;142;50.652;12.216;2022-10-29T01:42:49;0.30;;;0.20;;
147;SDS011;142;50.652;12.216;2022-10-29T01:45:20;0.30;;;0.20;;
147;SDS011;142;50.652;12.216;2022-10-29T01:47:54;0.30;;;0.20;;
147;SDS011;142;50.652;12.216;2022-10-29T01:50:24;0.20;;;0.10;;
147;SDS011;142;50.652;12.216;2022-10-29T01:52:52;0.30;;;0.20;;
147;SDS011;142;50.652;12.216;2022-10-29T01:55:22;0.00;;;0.00;;
147;SDS011;142;50.652;12.216;2022-10-29T01:57:59;0.27;;;0.17;;
147;SDS011;142;50.652;12.216;2022-10-29T02:00:26;0.20;;;0.10;;
147;SDS011;142;50.652;12.216;2022-10-29T02:03:06;0.27;;;0.17;;
147;SDS011;142;50.652;12.216;2022-10-29T02:05:47;0.20;;;0.10;;
147;SDS011;142;50.652;12.216;2022-10-29T02:08:24;0.30;;;0.20;;
147;SDS011;142;50.652;12.216;2022-10-29T02:10:58;0.20;;;0.10;;
147;SDS011;142;50.652;12.216;2022-10-29T02:13:30;0.20;;;0.10;;
147;SDS011;142;50.652;12.216;2022-10-29T02:15:59;0.40;;;0.30;;
147;SDS011;142;50.652;12.216;2022-10-29T02:18:31;0.20;;;0.10;;
147;SDS011;142;50.652;12.216;2022-10-29T02:21:06;0.20;;;0.10;;
147;SDS011;142;50.652;12.216;2022-10-29T02:23:34;0.30;;;0.20;;
147;SDS011;142;50.652;12.216;2022-10-29T02:26:01;0.30;;;0.20;;
147;SDS011;142;50.652;12.216;2022-10-29T02:28:29;0.20;;;0.10;;
147;SDS011;142;50.652;12.216;2022-10-29T02:30:56;0.20;;;0.10;;
147;SDS011;142;50.652;12.216;2022-10-29T02:33:23;0.30;;;0.20;;
147;SDS011;142;50.652;12.216;2022-10-29T02:35:52;0.23;;;0.13;;
147;SDS011;142;50.652;12.216;2022-10-29T02:38:19;0.20;;;0.10;;
147;SDS011;142;50.652;12.216;2022-10-29T02:40:46;0.23;;;0.13;;
147;SDS011;142;50.652;12.216;2022-10-29T02:43:13;0.20;;;0.10;;
147;SDS011;142;50.652;12.216;2022-10-29T02:45:40;0.20;;;0.10;;
147;SDS011;142;50.652;12.216;2022-10-29T02:48:07;0.23;;;0.13;;
147;SDS011;142;50.652;12.216;2022-10-29T02:50:34;0.20;;;0.10;;
147;SDS011;142;50.652;12.216;2022-10-29T02:53:03;0.20;;;0.10;;
147;SDS011;142;50.652;12.216;2022-10-29T02:55:30;0.30;;;0.20;;
147;SDS011;142;50.652;12.216;2022-10-29T02:57:57;0.30;;;0.20;;
147;SDS011;142;50.652;12.216;2022-10-29T03:00:24;0.30;;;0.20;;
147;SDS011;142;50.652;12.216;2022-10-29T03:02:51;0.33;;;0.23;;
147;SDS011;142;50.652;12.216;2022-10-29T03:05:18;0.20;;;0.10;;
147;SDS011;142;50.652;12.216;2022-10-29T03:07:46;0.20;;;0.10;;
147;SDS011;142;50.652;12.216;2022-10-29T03:10:14;0.33;;;0.23;;
147;SDS011;142;50.652;12.216;2022-10-29T03:12:41;0.20;;;0.10;;
147;SDS011;142;50.652;12.216;2022-10-29T03:15:09;0.20;;;0.10;;
147;SDS011;142;50.652;12.216;2022-10-29T03:17:36;0.30;;;0.20;;
147;SDS011;142;50.652;12.216;2022-10-29T03:20:03;0.23;;;0.13;;
147;SDS011;142;50.652;12.216;2022-10-29T03:22:31;0.20;;;0.10;;
147;SDS011;142;50.652;12.216;2022-10-29T03:24:58;0.30;;;0.20;;
147;SDS011;142;50.652;12.216;2022-10-29T03:27:27;0.33;;;0.23;;
147;SDS011;142;50.652;12.216;2022-10-29T03:29:54;0.20;;;0.10;;
147;SDS011;142;50.652;12.216;2022-10-29T03:32:21;0.20;;;0.10;;
147;SDS011;142;50.652;12.216;2022-10-29T03:34:48;0.27;;;0.17;;
147;SDS011;142;50.652;12.216;2022-10-29T03:37:15;0.23;;;0.13;;
147;SDS011;142;50.652;12.216;2022-10-29T03:39:43;0.20;;;0.10;;
147;SDS011;142;50.652;12.216;2022-10-29T03:42:10;0.20;;;0.10;;
147;SDS011;142;50.652;12.216;2022-10-29T03:44:38;0.30;;;0.20;;
147;SDS011;142;50.652;12.216;2022-10-29T03:47:06;0.30;;;0.20;;
147;SDS011;142;50.652;12.216;2022-10-29T03:49:33;0.20;;;0.10;;
147;SDS011;142;50.652;12.216;2022-10-29T03:52:00;0.30;;;0.20;;
147;SDS011;142;50.652;12.216;2022-10-29T03:54:27;0.20;;;0.10;;
147;SDS011;142;50.652;12.216;2022-10-29T03:56:54;0.30;;;0.20;;
147;SDS011;142;50.652;12.216;2022-10-29T03:59:21;0.20;;;0.10;;
147;SDS011;142;50.652;12.216;2022-10-29T04:01:49;0.20;;;0.10;;
147;SDS011;142;50.652;12.216;2022-10-29T04:04:16;0.20;;;0.10;;
147;SDS011;142;50.652;12.216;2022-10-29T04:06:43;0.20;;;0.10;;
147;SDS011;142;50.652;12.216;2022-10-29T04:09:10;0.40;;;0.30;;
147;SDS011;142;50.652;12.216;2022-10-29T04:11:37;0.20;;;0.10;;
147;SDS011;142;50.652;12.216;2022-10-29T04:14:04;0.20;;;0.10;;
147;SDS011;142;50.652;12.216;2022-10-29T04:16:32;0.20;;;0.10;;
147;SDS011;142;50.652;12.216;2022-10-29T04:19:01;0.30;;;0.20;;
147;SDS011;142;50.652;12.216;2022-10-29T04:21:28;0.27;;;0.17;;
147;SDS011;142;50.652;12.216;2022-10-29T04:23:55;0.23;;;0.13;;
147;SDS011;142;50.652;12.216;2022-10-29T04:26:22;0.23;;;0.13;;
147;SDS011;142;50.652;12.216;2022-10-29T04:28:50;0.27;;;0.17;;
147;SDS011;142;50.652;12.216;2022-10-29T04:31:17;0.20;;;0.10;;
147;SDS011;142;50.652;12.216;2022-10-29T04:33:44;0.27;;;0.17;;
147;SDS011;142;50.652;12.216;2022-10-29T04:36:13;0.30;;;0.20;;
147;SDS011;142;50.652;12.216;2022-10-29T04:38:40;0.30;;;0.20;;
147;SDS011;142;50.652;12.216;2022-10-29T04:41:07;0.23;;;0.13;;
147;SDS011;142;50.652;12.216;2022-10-29T04:43:34;0.40;;;0.30;;
147;SDS011;142;50.652;12.216;2022-10-29T04:46:02;0.37;;;0.27;;
147;SDS011;142;50.652;12.216;2022-10-29T04:48:29;0.40;;;0.30;;
147;SDS011;142;50.652;12.216;2022-10-29T04:50:56;0.20;;;0.10;;
147;SDS011;142;50.652;12.216;2022-10-29T04:53:24;0.30;;;0.20;;
147;SDS011;142;50.652;12.216;2022-10-29T04:55:57;0.20;;;0.10;;
147;SDS011;142;50.652;12.216;2022-10-29T04:58:24;0.30;;;0.20;;
147;SDS011;142;50.652;12.216;2022-10-29T05:00:52;0.23;;;0.13;;
147;SDS011;142;50.652;12.216;2022-10-29T05:03:18;0.20;;;0.10;;
147;SDS011;142;50.652;12.216;2022-10-29T05:05:46;0.20;;;0.10;;
147;SDS011;142;50.652;12.216;2022-10-29T05:08:13;0.20;;;0.10;;
147;SDS011;142;50.652;12.216;2022-10-29T05:10:42;0.13;;;0.07;;
147;SDS011;142;50.652;12.216;2022-10-29T05:13:10;0.30;;;0.20;;
147;SDS011;142;50.652;12.216;2022-10-29T05:15:38;0.20;;;0.10;;
147;SDS011;142;50.652;12.216;2022-10-29T05:18:05;0.20;;;0.10;;
147;SDS011;142;50.652;12.216;2022-10-29T05:20:34;0.20;;;0.10;;
147;SDS011;142;50.652;12.216;2022-10-29T05:23:02;0.20;;;0.10;;
147;SDS011;142;50.652;12.216;2022-10-29T05:25:31;0.20;;;0.10;;
147;SDS011;142;50.652;12.216;2022-10-29T05:28:04;0.20;;;0.10;;
147;SDS011;142;50.652;12.216;2022-10-29T05:30:32;0.30;;;0.20;;
147;SDS011;142;50.652;12.216;2022-10-29T05:33:00;0.30;;;0.20;;
147;SDS011;142;50.652;12.216;2022-10-29T05:35:27;0.20;;;0.10;;
147;SDS011;142;50.652;12.216;2022-10-29T05:37:54;0.27;;;0.17;;
147;SDS011;142;50.652;12.216;2022-10-29T05:40:22;0.20;;;0.10;;
147;SDS011;142;50.652;12.216;2022-10-29T05:42:50;0.40;;;0.30;;
147;SDS011;142;50.652;12.216;2022-10-29T05:45:19;0.20;;;0.10;;
147;SDS011;142;50.652;12.216;2022-10-29T05:47:46;0.20;;;0.10;;
147;SDS011;142;50.652;12.216;2022-10-29T05:50:14;0.20;;;0.10;;
147;SDS011;142;50.652;12.216;2022-10-29T05:52:41;0.20;;;0.10;;
147;SDS011;142;50.652;12.216;2022-10-29T05:55:08;0.20;;;0.10;;
147;SDS011;142;50.652;12.216;2022-10-29T05:57:38;0.20;;;0.10;;
147;SDS011;142;50.652;12.216;2022-10-29T06:00:05;0.20;;;0.10;;
147;SDS011;142;50.652;12.216;2022-10-29T06:02:35;0.20;;;0.10;;
147;SDS011;142;50.652;12.216;2022-10-29T06:05:04;0.20;;;0.10;;
147;SDS011;142;50.652;12.216;2022-10-29T06:07:32;0.20;;;0.10;;
147;SDS011;142;50.652;12.216;2022-10-29T06:09:59;0.20;;;0.10;;
147;SDS011;142;50.652;12.216;2022-10-29T06:12:26;0.20;;;0.10;;
147;SDS011;142;50.652;12.216;2022-10-29T06:14:53;0.30;;;0.20;;
147;SDS011;142;50.652;12.216;2022-10-29T06:17:20;0.30;;;0.20;;
147;SDS011;142;50.652;12.216;2022-10-29T06:19:49;0.30;;;0.20;;
147;SDS011;142;50.652;12.216;2022-10-29T06:22:16;0.20;;;0.10;;
147;SDS011;142;50.652;12.216;2022-10-29T06:24:43;0.30;;;0.20;;
147;SDS011;142;50.652;12.216;2022-10-29T06:27:10;0.40;;;0.30;;
147;SDS011;142;50.652;12.216;2022-10-29T06:29:37;0.30;;;0.20;;
147;SDS011;142;50.652;12.216;2022-10-29T06:32:04;0.30;;;0.20;;
147;SDS011;142;50.652;12.216;2022-10-29T06:34:31;0.20;;;0.10;;
147;SDS011;142;50.652;12.216;2022-10-29T06:37:00;0.40;;;0.30;;
147;SDS011;142;50.652;12.216;2022-10-29T06:39:26;0.30;;;0.20;;
147;SDS011;142;50.652;12.216;2022-10-29T06:41:54;0.30;;;0.20;;
147;SDS011;142;50.652;12.216;2022-10-29T06:44:20;0.20;;;0.10;;
147;SDS011;142;50.652;12.216;2022-10-29T06:46:48;0.30;;;0.20;;
147;SDS011;142;50.652;12.216;2022-10-29T06:49:15;0.20;;;0.10;;
147;SDS011;142;50.652;12.216;2022-10-29T06:51:42;0.20;;;0.10;;
147;SDS011;142;50.652;12.216;2022-10-29T06:54:11;0.20;;;0.10;;
147;SDS011;142;50.652;12.216;2022-10-29T06:56:38;0.20;;;0.10;;
147;SDS011;142;50.652;12.216;2022-10-29T06:59:06;0.20;;;0.10;;
147;SDS011;142;50.652;12.216;2022-10-29T07:01:33;0.23;;;0.13;;
147;SDS011;142;50.652;12.216;2022-10-29T07:04:00;0.20;;;0.10;;
147;SDS011;142;50.652;12.216;2022-10-29T07:06:27;0.20;;;0.10;;
147;SDS011;142;50.652;12.216;2022-10-29T07:08:58;0.20;;;0.10;;
147;SDS011;142;50.652;12.216;2022-10-29T07:11:27;0.20;;;0.10;;
147;SDS011;142;50.652;12.216;2022-10-29T07:13:53;0.30;;;0.20;;
147;SDS011;142;50.652;12.216;2022-10-29T07:16:20;0.30;;;0.20;;
147;SDS011;142;50.652;12.216;2022-10-29T07:18:47;0.20;;;0.10;;
147;SDS011;142;50.652;12.216;2022-10-29T07:21:14;0.27;;;0.17;;
147;SDS011;142;50.652;12.216;2022-10-29T07:23:41;0.30;;;0.20;;
147;SDS011;142;50.652;12.216;2022-10-29T07:26:08;0.20;;;0.10;;
147;SDS011;142;50.652;12.216;2022-10-29T07:28:38;0.30;;;0.20;;
147;SDS011;142;50.652;12.216;2022-10-29T07:31:06;0.23;;;0.13;;
147;SDS011;142;50.652;12.216;2022-10-29T07:33:33;0.20;;;0.10;;
147;SDS011;142;50.652;12.216;2022-10-29T07:36:00;0.30;;;0.20;;
147;SDS011;142;50.652;12.216;2022-10-29T07:38:27;0.20;;;0.10;;
147;SDS011;142;50.652;12.216;2022-10-29T07:40:54;0.20;;;0.10;;
147;SDS011;142;50.652;12.216;2022-10-29T07:43:21;0.50;;;0.40;;
147;SDS011;142;50.652;12.216;2022-10-29T07:45:49;0.30;;;0.20;;
147;SDS011;142;50.652;12.216;2022-10-29T07:48:17;0.20;;;0.10;;
147;SDS011;142;50.652;12.216;2022-10-29T07:50:45;0.20;;;0.10;;
147;SDS011;142;50.652;12.216;2022-10-29T07:53:13;0.20;;;0.10;;
147;SDS011;142;50.652;12.216;2022-10-29T07:55:40;0.20;;;0.10;;
147;SDS011;142;50.652;12.216;2022-10-29T07:58:09;0.20;;;0.10;;
147;SDS011;142;50.652;12.216;2022-10-29T08:00:38;0.20;;;0.10;;
147;SDS011;142;50.652;12.216;2022-10-29T08:03:08;0.20;;;0.10;;
147;SDS011;142;50.652;12.216;2022-10-29T08:05:37;0.30;;;0.20;;
147;SDS011;142;50.652;12.216;2022-10-29T08:08:05;0.00;;;0.00;;
147;SDS011;142;50.652;12.216;2022-10-29T08:10:33;0.07;;;0.03;;
147;SDS011;142;50.652;12.216;2022-10-29T08:13:02;0.20;;;0.10;;
147;SDS011;142;50.652;12.216;2022-10-29T08:15:30;0.30;;;0.20;;
147;SDS011;142;50.652;12.216;2022-10-29T08:17:59;0.00;;;0.00;;
147;SDS011;142;50.652;12.216;2022-10-29T08:20:29;0.00;;;0.00;;
147;SDS011;142;50.652;12.216;2022-10-29T08:22:57;0.20;;;0.10;;
147;SDS011;142;50.652;12.216;2022-10-29T08:25:25;0.07;;;0.03;;
147;SDS011;142;50.652;12.216;2022-10-29T08:27:58;0.00;;;0.00;;
147;SDS011;142;50.652;12.216;2022-10-29T08:30:27;0.20;;;0.10;;
147;SDS011;142;50.652;12.216;2022-10-29T08:32:55;0.20;;;0.10;;
147;SDS011;142;50.652;12.216;2022-10-29T08:35:22;0.20;;;0.10;;
147;SDS011;142;50.652;12.216;2022-10-29T08:37:51;0.00;;;0.00;;
147;SDS011;142;50.652;12.216;2022-10-29T08:40:23;0.00;;;0.00;;
147;SDS011;142;50.652;12.216;2022-10-29T08:43:07;0.20;;;0.10;;
147;SDS011;142;50.652;12.216;2022-10-29T08:45:51;0.00;;;0.00;;
147;SDS011;142;50.652;12.216;2022-10-29T08:48:28;0.00;;;0.00;;
147;SDS011;142;50.652;12.216;2022-10-29T08:51:02;0.20;;;0.10;;
147;SDS011;142;50.652;12.216;2022-10-29T08:53:35;0.20;;;0.10;;
147;SDS011;142;50.652;12.216;2022-10-29T08:56:09;0.00;;;0.00;;
147;SDS011;142;50.652;12.216;2022-10-29T08:58:42;0.00;;;0.00;;
147;SDS011;142;50.652;12.216;2022-10-29T09:01:16;0.00;;;0.00;;
147;SDS011;142;50.652;12.216;2022-10-29T09:03:45;0.20;;;0.10;;
147;SDS011;142;50.652;12.216;2022-10-29T09:06:12;0.00;;;0.00;;
147;SDS011;142;50.652;12.216;2022-10-29T09:08:47;0.00;;;0.00;;
147;SDS011;142;50.652;12.216;2022-10-29T09:11:41;0.00;;;0.00;;
147;SDS011;142;50.652;12.216;2022-10-29T09:14:38;0.20;;;0.10;;
147;SDS011;142;50.652;12.216;2022-10-29T09:17:17;0.20;;;0.10;;
147;SDS011;142;50.652;12.216;2022-10-29T09:19:55;0.20;;;0.10;;
147;SDS011;142;50.652;12.216;2022-10-29T09:22:31;0.00;;;0.00;;
147;SDS011;142;50.652;12.216;2022-10-29T09:25:10;0.20;;;0.10;;
147;SDS011;142;50.652;12.216;2022-10-29T09:27:46;0.00;;;0.00;;
147;SDS011;142;50.652;12.216;2022-10-29T09:30:21;0.00;;;0.00;;
147;SDS011;142;50.652;12.216;2022-10-29T09:32:51;0.20;;;0.10;;
147;SDS011;142;50.652;12.216;2022-10-29T09:35:25;0.20;;;0.10;;
147;SDS011;142;50.652;12.216;2022-10-29T09:38:06;0.20;;;0.10;;
147;SDS011;142;50.652;12.216;2022-10-29T09:40:41;0.13;;;0.07;;
147;SDS011;142;50.652;12.216;2022-10-29T09:43:14;0.00;;;0.00;;
147;SDS011;142;50.652;12.216;2022-10-29T09:45:50;0.00;;;0.00;;
147;SDS011;142;50.652;12.216;2022-10-29T09:48:27;0.00;;;0.00;;
147;SDS011;142;50.652;12.216;2022-10-29T09:51:00;0.00;;;0.00;;
147;SDS011;142;50.652;12.216;2022-10-29T09:53:40;0.07;;;0.03;;
147;SDS011;142;50.652;12.216;2022-10-29T09:56:09;0.20;;;0.10;;
147;SDS011;142;50.652;12.216;2022-10-29T09:58:37;0.00;;;0.00;;
147;SDS011;142;50.652;12.216;2022-10-29T10:01:09;0.00;;;0.00;;
147;SDS011;142;50.652;12.216;2022-10-29T10:03:37;0.20;;;0.10;;
147;SDS011;142;50.652;12.216;2022-10-29T10:06:10;0.20;;;0.10;;
147;SDS011;142;50.652;12.216;2022-10-29T10:11:29;0.20;;;0.10;;
147;SDS011;142;50.652;12.216;2022-10-29T10:14:04;0.20;;;0.10;;
147;SDS011;142;50.652;12.216;2022-10-29T10:16:41;0.00;;;0.00;;
147;SDS011;142;50.652;12.216;2022-10-29T10:19:18;0.13;;;0.07;;
147;SDS011;142;50.652;12.216;2022-10-29T10:21:54;0.00;;;0.00;;
147;SDS011;142;50.652;12.216;2022-10-29T10:24:27;0.00;;;0.00;;
147;SDS011;142;50.652;12.216;2022-10-29T10:26:56;0.00;;;0.00;;
147;SDS011;142;50.652;12.216;2022-10-29T10:29:24;0.00;;;0.00;;
147;SDS011;142;50.652;12.216;2022-10-29T10:34:41;0.00;;;0.00;;
147;SDS011;142;50.652;12.216;2022-10-29T10:37:11;0.00;;;0.00;;
147;SDS011;142;50.652;12.216;2022-10-29T10:39:43;0.00;;;0.00;;
147;SDS011;142;50.652;12.216;2022-10-29T10:42:18;0.00;;;0.00;;
147;SDS011;142;50.652;12.216;2022-10-29T10:44:48;0.00;;;0.00;;
147;SDS011;142;50.652;12.216;2022-10-29T10:47:17;0.00;;;0.00;;
147;SDS011;142;50.652;12.216;2022-10-29T10:49:47;0.00;;;0.00;;
147;SDS011;142;50.652;12.216;2022-10-29T10:52:15;0.00;;;0.00;;
147;SDS011;142;50.652;12.216;2022-10-29T10:54:45;0.00;;;0.00;;
147;SDS011;142;50.652;12.216;2022-10-29T10:57:21;0.00;;;0.00;;
147;SDS011;142;50.652;12.216;2022-10-29T10:59:53;0.00;;;0.00;;
147;SDS011;142;50.652;12.216;2022-10-29T11:02:26;0.00;;;0.00;;
147;SDS011;142;50.652;12.216;2022-10-29T11:05:02;0.00;;;0.00;;
147;SDS011;142;50.652;12.216;2022-10-29T11:07:38;0.00;;;0.00;;
147;SDS011;142;50.652;12.216;2022-10-29T11:10:11;0.00;;;0.00;;
147;SDS011;142;50.652;12.216;2022-10-29T11:12:42;0.00;;;0.00;;
147;SDS011;142;50.652;12.216;2022-10-29T11:15:14;0.00;;;0.00;;
147;SDS011;142;50.652;12.216;2022-10-29T11:17:46;0.00;;;0.00;;
147;SDS011;142;50.652;12.216;2022-10-29T11:20:18;0.00;;;0.00;;
147;SDS011;142;50.652;12.216;2022-10-29T11:22:53;0.00;;;0.00;;
147;SDS011;142;50.652;12.216;2022-10-29T11:25:28;0.00;;;0.00;;
147;SDS011;142;50.652;12.216;2022-10-29T11:28:06;0.00;;;0.00;;
147;SDS011;142;50.652;12.216;2022-10-29T11:30:43;0.00;;;0.00;;
147;SDS011;142;50.652;12.216;2022-10-29T11:33:19;0.00;;;0.00;;
147;SDS011;142;50.652;12.216;2022-10-29T11:35:48;0.00;;;0.00;;
147;SDS011;142;50.652;12.216;2022-10-29T11:38:20;0.00;;;0.00;;
147;SDS011;142;50.652;12.216;2022-10-29T11:40:52;0.00;;;0.00;;
147;SDS011;142;50.652;12.216;2022-10-29T11:43:24;0.00;;;0.00;;
147;SDS011;142;50.652;12.216;2022-10-29T11:45:54;0.00;;;0.00;;
147;SDS011;142;50.652;12.216;2022-10-29T11:48:30;0.00;;;0.00;;
147;SDS011;142;50.652;12.216;2022-10-29T11:51:12;0.20;;;0.10;;
147;SDS011;142;50.652;12.216;2022-10-29T11:53:54;0.00;;;0.00;;
147;SDS011;142;50.652;12.216;2022-10-29T11:56:31;0.00;;;0.00;;
147;SDS011;142;50.652;12.216;2022-10-29T11:59:17;0.00;;;0.00;;
147;SDS011;142;50.652;12.216;2022-10-29T12:02:01;0.00;;;0.00;;
147;SDS011;142;50.652;12.216;2022-10-29T12:04:44;0.00;;;0.00;;
147;SDS011;142;50.652;12.216;2022-10-29T12:07:18;0.00;;;0.00;;
147;SDS011;142;50.652;12.216;2022-10-29T12:12:52;0.00;;;0.00;;
147;SDS011;142;50.652;12.216;2022-10-29T12:15:28;0.00;;;0.00;;
147;SDS011;142;50.652;12.216;2022-10-29T12:18:05;0.00;;;0.00;;
147;SDS011;142;50.652;12.216;2022-10-29T12:20:39;0.00;;;0.00;;
147;SDS011;142;50.652;12.216;2022-10-29T12:23:15;0.00;;;0.00;;
147;SDS011;142;50.652;12.216;2022-10-29T12:25:54;0.00;;;0.00;;
147;SDS011;142;50.652;12.216;2022-10-29T12:28:30;0.00;;;0.00;;
147;SDS011;142;50.652;12.216;2022-10-29T12:31:10;0.00;;;0.00;;
147;SDS011;142;50.652;12.216;2022-10-29T12:33:47;0.00;;;0.00;;
147;SDS011;142;50.652;12.216;2022-10-29T12:36:21;0.00;;;0.00;;
147;SDS011;142;50.652;12.216;2022-10-29T12:38:55;0.00;;;0.00;;
147;SDS011;142;50.652;12.216;2022-10-29T12:41:23;0.00;;;0.00;;
147;SDS011;142;50.652;12.216;2022-10-29T12:43:53;0.00;;;0.00;;
147;SDS011;142;50.652;12.216;2022-10-29T12:46:30;0.20;;;0.10;;
147;SDS011;142;50.652;12.216;2022-10-29T12:49:04;0.00;;;0.00;;
147;SDS011;142;50.652;12.216;2022-10-29T12:51:39;0.00;;;0.00;;
147;SDS011;142;50.652;12.216;2022-10-29T12:54:16;0.00;;;0.00;;
147;SDS011;142;50.652;12.216;2022-10-29T12:57:01;0.00;;;0.00;;
147;SDS011;142;50.652;12.216;2022-10-29T12:59:31;0.00;;;0.00;;
147;SDS011;142;50.652;12.216;2022-10-29T13:05:12;0.00;;;0.00;;
147;SDS011;142;50.652;12.216;2022-10-29T13:08:16;0.00;;;0.00;;
147;SDS011;142;50.652;12.216;2022-10-29T13:10:52;0.00;;;0.00;;
147;SDS011;142;50.652;12.216;2022-10-29T13:16:18;0.00;;;0.00;;
147;SDS011;142;50.652;12.216;2022-10-29T13:18:58;0.00;;;0.00;;
147;SDS011;142;50.652;12.216;2022-10-29T13:24:35;0.00;;;0.00;;
147;SDS011;142;50.652;12.216;2022-10-29T13:27:04;0.00;;;0.00;;
147;SDS011;142;50.652;12.216;2022-10-29T13:30:17;0.00;;;0.00;;
147;SDS011;142;50.652;12.216;2022-10-29T13:32:49;0.00;;;0.00;;
147;SDS011;142;50.652;12.216;2022-10-29T13:38:08;0.00;;;0.00;;
147;SDS011;142;50.652;12.216;2022-10-29T13:43:34;0.00;;;0.00;;
147;SDS011;142;50.652;12.216;2022-10-29T13:46:13;0.00;;;0.00;;
147;SDS011;142;50.652;12.216;2022-10-29T13:48:52;0.00;;;0.00;;
147;SDS011;142;50.652;12.216;2022-10-29T13:51:26;0.00;;;0.00;;
147;SDS011;142;50.652;12.216;2022-10-29T13:54:00;0.00;;;0.00;;
147;SDS011;142;50.652;12.216;2022-10-29T13:56:33;0.00;;;0.00;;
147;SDS011;142;50.652;12.216;2022-10-29T13:59:13;0.00;;;0.00;;
147;SDS011;142;50.652;12.216;2022-10-29T14:01:56;0.00;;;0.00;;
147;SDS011;142;50.652;12.216;2022-10-29T14:04:29;0.00;;;0.00;;
147;SDS011;142;50.652;12.216;2022-10-29T14:07:02;0.00;;;0.00;;
147;SDS011;142;50.652;12.216;2022-10-29T14:09:39;0.00;;;0.00;;
147;SDS011;142;50.652;12.216;2022-10-29T14:12:12;0.00;;;0.00;;
147;SDS011;142;50.652;12.216;2022-10-29T14:14:47;0.00;;;0.00;;
147;SDS011;142;50.652;12.216;2022-10-29T14:17:21;0.00;;;0.00;;
147;SDS011;142;50.652;12.216;2022-10-29T14:19:49;0.00;;;0.00;;
147;SDS011;142;50.652;12.216;2022-10-29T14:30:40;0.00;;;0.00;;
147;SDS011;142;50.652;12.216;2022-10-29T14:36:07;0.00;;;0.00;;
147;SDS011;142;50.652;12.216;2022-10-29T14:38:43;0.00;;;0.00;;
147;SDS011;142;50.652;12.216;2022-10-29T14:41:14;0.00;;;0.00;;
147;SDS011;142;50.652;12.216;2022-10-29T14:43:42;0.00;;;0.00;;
147;SDS011;142;50.652;12.216;2022-10-29T14:46:20;0.00;;;0.00;;
147;SDS011;142;50.652;12.216;2022-10-29T14:48:51;0.00;;;0.00;;
147;SDS011;142;50.652;12.216;2022-10-29T14:51:24;0.00;;;0.00;;
147;SDS011;142;50.652;12.216;2022-10-29T14:53:57;0.00;;;0.00;;
147;SDS011;142;50.652;12.216;2022-10-29T14:56:31;0.00;;;0.00;;
147;SDS011;142;50.652;12.216;2022-10-29T14:59:01;0.00;;;0.00;;
147;SDS011;142;50.652;12.216;2022-10-29T15:01:42;0.00;;;0.00;;
147;SDS011;142;50.652;12.216;2022-10-29T15:04:15;0.00;;;0.00;;
147;SDS011;142;50.652;12.216;2022-10-29T15:06:44;0.00;;;0.00;;
147;SDS011;142;50.652;12.216;2022-10-29T15:09:14;0.20;;;0.10;;
147;SDS011;142;50.652;12.216;2022-10-29T15:11:56;0.00;;;0.00;;
147;SDS011;142;50.652;12.216;2022-10-29T15:14:31;0.00;;;0.00;;
147;SDS011;142;50.652;12.216;2022-10-29T15:17:05;0.00;;;0.00;;
147;SDS011;142;50.652;12.216;2022-10-29T15:19:34;0.00;;;0.00;;
147;SDS011;142;50.652;12.216;2022-10-29T15:22:06;0.00;;;0.00;;
147;SDS011;142;50.652;12.216;2022-10-29T15:24:35;0.00;;;0.00;;
147;SDS011;142;50.652;12.216;2022-10-29T15:27:03;0.00;;;0.00;;
147;SDS011;142;50.652;12.216;2022-10-29T15:29:32;0.00;;;0.00;;
147;SDS011;142;50.652;12.216;2022-10-29T15:32:04;0.20;;;0.10;;
147;SDS011;142;50.652;12.216;2022-10-29T15:34:37;0.20;;;0.10;;
147;SDS011;142;50.652;12.216;2022-10-29T15:37:20;0.00;;;0.00;;
147;SDS011;142;50.652;12.216;2022-10-29T15:40:08;0.00;;;0.00;;
147;SDS011;142;50.652;12.216;2022-10-29T15:42:40;0.20;;;0.10;;
147;SDS011;142;50.652;12.216;2022-10-29T15:47:56;0.30;;;0.20;;
147;SDS011;142;50.652;12.216;2022-10-29T15:50:43;0.20;;;0.10;;
147;SDS011;142;50.652;12.216;2022-10-29T15:53:12;0.20;;;0.10;;
147;SDS011;142;50.652;12.216;2022-10-29T15:55:42;0.00;;;0.00;;
147;SDS011;142;50.652;12.216;2022-10-29T15:58:11;0.00;;;0.00;;
147;SDS011;142;50.652;12.216;2022-10-29T16:00:43;0.20;;;0.10;;
147;SDS011;142;50.652;12.216;2022-10-29T16:03:11;0.20;;;0.10;;
147;SDS011;142;50.652;12.216;2022-10-29T16:05:39;0.00;;;0.00;;
147;SDS011;142;50.652;12.216;2022-10-29T16:08:08;0.20;;;0.10;;
147;SDS011;142;50.652;12.216;2022-10-29T16:10:44;0.20;;;0.10;;
147;SDS011;142;50.652;12.216;2022-10-29T16:13:12;0.30;;;0.20;;
147;SDS011;142;50.652;12.216;2022-10-29T16:15:39;0.00;;;0.00;;
147;SDS011;142;50.652;12.216;2022-10-29T16:18:06;0.07;;;0.03;;
147;SDS011;142;50.652;12.216;2022-10-29T16:20:33;0.00;;;0.00;;
147;SDS011;142;50.652;12.216;2022-10-29T16:23:00;0.00;;;0.00;;
147;SDS011;142;50.652;12.216;2022-10-29T16:25:28;0.00;;;0.00;;
147;SDS011;142;50.652;12.216;2022-10-29T16:27:56;0.13;;;0.07;;
147;SDS011;142;50.652;12.216;2022-10-29T16:30:23;0.00;;;0.00;;
147;SDS011;142;50.652;12.216;2022-10-29T16:32:50;0.00;;;0.00;;